Time;durP1;ratioP1;P1;durP2;ratioP2;P2;SDS_P1;SDS_P2;PMS_P1;PMS_P2;Temp;Humidity;BMP_temperature;BMP_pressure;BME280_temperature;BME280_humidity;BME280_pressure;Samples;Min_cycle;Max_cycle;Signal;HPM_P1;HPM_P2
2023/04/29 00:01:06;;;;;;;23.47;15.13;;;;;;;9.82;100.00;101076.56;5018672;28;20272;-71
2023/04/29 00:03:32;;;;;;;19.43;15.60;;;;;;;9.72;100.00;101078.88;5026100;28;20190;-70
2023/04/29 00:05:58;;;;;;;17.40;14.53;;;;;;;9.73;100.00;101072.91;5007384;28;20193;-69
2023/04/29 00:08:23;;;;;;;20.20;15.50;;;;;;;9.77;100.00;101080.69;5016796;28;20634;-70
2023/04/29 00:10:49;;;;;;;24.67;16.17;;;;;;;9.76;100.00;101080.66;5017502;28;20206;-70
2023/04/29 00:13:15;;;;;;;19.60;15.90;;;;;;;9.78;100.00;101079.00;5027741;28;20191;-70
2023/04/29 00:15:41;;;;;;;23.43;16.40;;;;;;;9.68;100.00;101083.00;5026540;28;20206;-71
2023/04/29 00:18:08;;;;;;;19.67;16.00;;;;;;;9.64;100.00;101086.31;5028161;28;20194;-71
2023/04/29 00:20:34;;;;;;;18.17;14.40;;;;;;;9.67;100.00;101085.53;5024186;28;20277;-70
2023/04/29 00:22:59;;;;;;;18.13;14.53;;;;;;;9.65;100.00;101089.72;5019705;28;20633;-69
2023/04/29 00:25:25;;;;;;;18.83;14.43;;;;;;;9.62;100.00;101089.63;5023463;28;20206;-69
2023/04/29 00:27:50;;;;;;;18.80;14.57;;;;;;;9.58;100.00;101090.41;5022962;28;20194;-68
2023/04/29 00:30:16;;;;;;;18.60;14.57;;;;;;;9.60;100.00;101094.75;5022267;28;20242;-68
2023/04/29 00:32:42;;;;;;;20.70;15.33;;;;;;;9.57;100.00;101086.09;5024644;28;20661;-69
2023/04/29 00:35:08;;;;;;;18.67;15.23;;;;;;;9.53;100.00;101091.94;5023797;28;20362;-68
2023/04/29 00:37:34;;;;;;;20.43;15.63;;;;;;;9.49;100.00;101096.13;5008898;28;20206;-68
2023/04/29 00:39:59;;;;;;;17.70;15.23;;;;;;;9.45;100.00;101090.91;5007093;28;20234;-71
2023/04/29 00:42:26;;;;;;;18.93;15.10;;;;;;;9.55;100.00;101096.31;5005903;28;20695;-70
2023/04/29 00:44:52;;;;;;;22.63;14.47;;;;;;;9.53;100.00;101102.16;5010577;28;20202;-68
2023/04/29 00:47:17;;;;;;;19.13;15.30;;;;;;;9.47;100.00;101100.34;5002967;28;20206;-68
2023/04/29 00:49:43;;;;;;;20.23;14.30;;;;;;;9.44;100.00;101090.00;5020905;28;20229;-70
2023/04/29 00:52:10;;;;;;;19.97;14.80;;;;;;;9.44;100.00;101089.16;5019927;28;20245;-69
2023/04/29 00:54:36;;;;;;;19.40;14.43;;;;;;;9.48;100.00;101093.50;5016581;28;20630;-69
2023/04/29 00:57:05;;;;;;;18.53;14.70;;;;;;;9.42;100.00;101090.81;5019901;28;20566;-70
2023/04/29 00:59:31;;;;;;;18.33;14.40;;;;;;;9.34;100.00;101105.03;5019291;28;20228;-68
2023/04/29 01:02:00;;;;;;;17.50;14.20;;;;;;;9.42;100.00;101099.34;5025459;28;20252;-69
2023/04/29 01:04:25;;;;;;;17.50;14.80;;;;;;;9.36;100.00;101113.63;5022319;28;20202;-67
2023/04/29 01:07:03;;;;;;;19.53;14.33;;;;;;;9.32;100.00;101107.59;5023431;28;20281;-67
2023/04/29 01:10:09;;;;;;;16.37;13.53;;;;;;;9.35;100.00;101114.47;5024767;28;20210;-68
2023/04/29 01:12:35;;;;;;;20.13;14.87;;;;;;;9.33;100.00;101119.53;5023896;28;20691;-68
2023/04/29 01:15:25;;;;;;;17.63;14.53;;;;;;;9.31;100.00;101123.72;5002381;28;20195;-69
2023/04/29 01:18:03;;;;;;;17.50;14.53;;;;;;;9.33;100.00;101129.75;5008246;28;20612;-69
2023/04/29 01:20:29;;;;;;;18.83;14.67;;;;;;;9.38;100.00;101123.06;5020906;28;20210;-68
2023/04/29 01:22:55;;;;;;;17.60;14.30;;;;;;;9.41;100.00;101120.63;5004790;28;20193;-70
2023/04/29 01:25:21;;;;;;;17.23;14.13;;;;;;;9.37;100.00;101123.91;4994012;28;20216;-70
2023/04/29 01:28:06;;;;;;;17.83;14.70;;;;;;;9.33;100.00;101127.19;5005591;28;20226;-69
2023/04/29 01:31:03;;;;;;;17.70;14.27;;;;;;;9.34;100.00;101134.03;5022783;28;20249;-69
2023/04/29 01:33:39;;;;;;;17.57;14.33;;;;;;;9.31;100.00;101130.53;5021073;28;20198;-69
2023/04/29 01:36:39;;;;;;;20.03;14.80;;;;;;;9.33;100.00;101136.53;4990128;28;20264;-71
2023/04/29 01:39:17;;;;;;;17.07;13.73;;;;;;;9.35;100.00;101142.56;5007589;28;20221;-71
2023/04/29 01:41:56;;;;;;;15.83;13.53;;;;;;;9.31;100.00;101148.41;5021870;28;20195;-71
2023/04/29 01:44:28;;;;;;;17.93;14.43;;;;;;;9.33;100.00;101146.75;5022384;28;20205;-70
2023/04/29 01:46:55;;;;;;;18.00;14.50;;;;;;;9.30;100.00;101149.25;5009637;28;20194;-71
2023/04/29 01:49:27;;;;;;;16.53;13.53;;;;;;;9.28;100.00;101155.97;5010034;28;20699;-70
2023/04/29 01:51:54;;;;;;;17.07;12.53;;;;;;;9.29;100.00;101161.13;5005010;28;20692;-70
2023/04/29 01:54:21;;;;;;;15.53;12.53;;;;;;;9.25;100.00;101161.00;5008957;28;20198;-70
2023/04/29 01:56:47;;;;;;;16.77;13.47;;;;;;;9.25;100.00;101155.88;5007294;28;20190;-70
2023/04/29 01:59:20;;;;;;;17.37;13.50;;;;;;;9.22;100.00;101164.31;5010245;28;20210;-69
2023/04/29 02:02:20;;;;;;;16.43;13.30;;;;;;;9.23;100.00;101167.75;5000617;28;20191;-70
2023/04/29 02:04:53;;;;;;;17.83;14.37;;;;;;;9.25;100.00;101173.75;5007830;28;20675;-69
2023/04/29 02:07:19;;;;;;;17.70;14.37;;;;;;;9.24;100.00;101167.81;5004690;28;20691;-69
2023/04/29 02:09:45;;;;;;;16.90;14.27;;;;;;;9.23;100.00;101180.53;5004374;28;20210;-68
2023/04/29 02:12:11;;;;;;;19.10;13.97;;;;;;;9.21;100.00;101187.28;5023895;28;20201;-71
2023/04/29 02:14:36;;;;;;;16.77;13.50;;;;;;;9.24;100.00;101187.38;5001994;28;20224;-71
2023/04/29 02:17:02;;;;;;;16.77;14.07;;;;;;;9.23;100.00;101186.53;5009369;28;20198;-71
2023/04/29 02:19:28;;;;;;;17.60;14.53;;;;;;;9.22;100.00;101181.34;5007751;28;20283;-70
2023/04/29 02:21:55;;;;;;;16.57;13.63;;;;;;;9.24;100.00;101198.47;5006689;28;20196;-70
2023/04/29 02:24:20;;;;;;;17.83;14.60;;;;;;;9.26;100.00;101191.69;5019085;28;20190;-70
2023/04/29 02:26:46;;;;;;;17.53;13.63;;;;;;;9.23;100.00;101201.84;5012107;28;20182;-70
2023/04/29 02:29:12;;;;;;;19.03;14.10;;;;;;;9.27;100.00;101201.09;5020785;28;20236;-68
2023/04/29 02:31:38;;;;;;;18.40;13.97;;;;;;;9.27;100.00;101207.91;5008969;28;20191;-69
2023/04/29 02:34:04;;;;;;;17.23;14.57;;;;;;;9.26;100.00;101209.59;5018623;28;20203;-69
2023/04/29 02:36:30;;;;;;;18.77;13.80;;;;;;;9.27;100.00;101211.31;5009207;28;20198;-71
2023/04/29 02:38:56;;;;;;;19.47;14.10;;;;;;;9.29;100.00;101207.13;5009502;28;20265;-71
2023/04/29 02:41:21;;;;;;;17.57;13.23;;;;;;;9.32;100.00;101211.47;5006283;28;20217;-70
2023/04/29 02:43:50;;;;;;;17.37;13.73;;;;;;;9.29;100.00;101211.38;5002359;28;20205;-70
2023/04/29 02:46:16;;;;;;;18.57;14.23;;;;;;;9.29;100.00;101214.81;5006625;28;20198;-67
2023/04/29 02:48:41;;;;;;;19.87;15.00;;;;;;;9.23;100.00;101219.72;5013431;28;20695;-67
2023/04/29 02:51:07;;;;;;;21.20;15.73;;;;;;;9.23;100.00;101216.31;5005980;28;20215;-71
2023/04/29 02:53:32;;;;;;;19.23;15.30;;;;;;;9.22;100.00;101217.97;5003869;28;20197;-70
2023/04/29 02:55:58;;;;;;;20.40;16.07;;;;;;;9.22;100.00;101219.69;5012081;28;20194;-70
2023/04/29 02:58:24;;;;;;;19.93;15.43;;;;;;;9.20;100.00;101221.31;5010490;28;20248;-69
2023/04/29 03:00:49;;;;;;;19.27;15.37;;;;;;;9.22;100.00;101223.09;5009315;28;20190;-68
2023/04/29 03:03:15;;;;;;;21.40;16.80;;;;;;;9.22;100.00;101225.63;5002215;28;20222;-69
2023/04/29 03:05:40;;;;;;;17.90;15.40;;;;;;;9.22;100.00;101238.41;5007585;28;20229;-70
2023/04/29 03:08:06;;;;;;;21.13;16.97;;;;;;;9.23;100.00;101235.06;5027296;28;20674;-70
2023/04/29 03:10:32;;;;;;;19.57;16.63;;;;;;;9.25;100.00;101242.75;5007175;28;20306;-69
2023/04/29 03:12:57;;;;;;;18.73;15.67;;;;;;;9.22;100.00;101238.41;5006754;28;20190;-70
2023/04/29 03:15:23;;;;;;;21.53;15.60;;;;;;;9.21;100.00;101251.16;4988252;28;21025;-70
2023/04/29 03:17:49;;;;;;;25.40;17.23;;;;;;;9.22;100.00;101247.78;5008192;28;20194;-70
2023/04/29 03:20:15;;;;;;;19.83;15.60;;;;;;;9.24;100.00;101252.13;5006591;28;20264;-70
2023/04/29 03:22:41;;;;;;;22.33;16.77;;;;;;;9.24;100.00;101252.13;5011015;28;20605;-68
2023/04/29 03:25:09;;;;;;;26.77;17.57;;;;;;;9.23;100.00;101250.41;5006659;28;20706;-69
2023/04/29 03:27:35;;;;;;;22.60;17.67;;;;;;;9.20;100.00;101255.41;5008781;28;20202;-69
2023/04/29 03:30:01;;;;;;;21.97;17.37;;;;;;;9.19;100.00;101263.88;5007166;28;20230;-69
2023/04/29 03:32:27;;;;;;;24.07;18.30;;;;;;;9.17;100.00;101252.72;5006848;28;20191;-68
2023/04/29 03:34:54;;;;;;;22.77;17.93;;;;;;;9.14;100.00;101265.44;5004135;28;20213;-69
2023/04/29 03:37:27;;;;;;;19.20;16.83;;;;;;;9.15;100.00;101267.16;5004444;28;20193;-68
2023/04/29 03:40:03;;;;;;;25.47;17.90;;;;;;;9.13;100.00;101273.03;5007845;28;20201;-69
2023/04/29 03:42:30;;;;;;;21.13;16.93;;;;;;;9.11;100.00;101270.44;5006153;28;20187;-68
2023/04/29 03:44:55;;;;;;;23.30;17.70;;;;;;;9.13;100.00;101281.56;5020639;28;20186;-71
2023/04/29 03:47:21;;;;;;;24.93;17.70;;;;;;;9.13;100.00;101290.94;5007502;28;20190;-70
2023/04/29 03:49:47;;;;;;;22.30;16.47;;;;;;;9.11;100.00;101292.53;5010237;28;20207;-70
2023/04/29 03:52:14;;;;;;;22.27;16.87;;;;;;;9.10;100.00;101289.13;5027426;28;20244;-70
2023/04/29 03:54:41;;;;;;;19.90;16.47;;;;;;;9.08;100.00;101288.19;5021990;28;20279;-69
2023/04/29 03:57:06;;;;;;;23.73;17.17;;;;;;;9.07;100.00;101290.75;5010759;28;20198;-69
2023/04/29 03:59:32;;;;;;;21.57;16.33;;;;;;;9.05;100.00;101300.91;5018257;28;20282;-69
2023/04/29 04:01:59;;;;;;;22.27;16.40;;;;;;;9.04;100.00;101301.69;5025279;28;20553;-69
2023/04/29 04:04:25;;;;;;;24.73;16.13;;;;;;;9.03;100.00;101304.22;5020409;28;20300;-69
2023/04/29 04:06:50;;;;;;;23.50;16.93;;;;;;;9.03;100.00;101310.19;5009298;28;20277;-71
2023/04/29 04:09:18;;;;;;;20.77;16.47;;;;;;;9.01;100.00;101316.94;5020954;28;20771;-70
2023/04/29 04:11:44;;;;;;;21.90;15.73;;;;;;;9.02;100.00;101315.22;5009600;28;20214;-68
2023/04/29 04:14:11;;;;;;;21.53;16.20;;;;;;;9.06;100.00;101319.63;5010668;28;20201;-69
2023/04/29 04:16:36;;;;;;;22.50;16.80;;;;;;;9.04;100.00;101322.13;5025827;28;20206;-71
2023/04/29 04:19:02;;;;;;;20.40;16.70;;;;;;;9.03;100.00;101325.50;5009521;28;20214;-70
2023/04/29 04:21:30;;;;;;;21.97;16.83;;;;;;;9.02;100.00;101328.88;5003443;28;20249;-69
2023/04/29 04:24:04;;;;;;;24.87;16.27;;;;;;;9.00;100.00;101338.19;5004342;28;20253;-69
2023/04/29 04:26:29;;;;;;;22.93;17.30;;;;;;;8.96;100.00;101343.13;5007844;28;20186;-70
2023/04/29 04:29:13;;;;;;;23.10;17.10;;;;;;;8.94;100.00;101349.88;5024905;28;20249;-71
2023/04/29 04:31:52;;;;;;;26.97;17.77;;;;;;;8.94;100.00;101355.00;5008091;28;20198;-70
2023/04/29 04:34:18;;;;;;;22.07;17.43;;;;;;;8.97;100.00;101360.19;5025186;28;20769;-69
2023/04/29 04:36:46;;;;;;;24.93;18.20;;;;;;;8.99;100.00;101361.97;5011226;28;20277;-69
2023/04/29 04:39:12;;;;;;;22.63;18.63;;;;;;;8.96;100.00;101358.47;5002980;28;20301;-70
2023/04/29 04:41:38;;;;;;;27.93;19.57;;;;;;;9.00;100.00;101361.19;5022096;28;20201;-70
2023/04/29 04:44:04;;;;;;;22.23;18.00;;;;;;;9.04;100.00;101355.31;5006677;28;20201;-69
2023/04/29 04:46:38;;;;;;;23.97;19.77;;;;;;;9.00;100.00;101365.41;5023681;28;20196;-71
2023/04/29 04:49:10;;;;;;;28.30;20.23;;;;;;;9.00;100.00;101371.41;5023584;28;20219;-70
2023/04/29 04:51:44;;;;;;;28.37;19.77;;;;;;;8.96;100.00;101376.34;5006978;28;20210;-70
2023/04/29 04:54:10;;;;;;;29.87;21.23;;;;;;;8.93;100.00;101376.22;5008087;28;20195;-69
2023/04/29 04:56:36;;;;;;;26.77;20.93;;;;;;;9.01;100.00;101369.69;5008042;28;20566;-69
2023/04/29 04:59:03;;;;;;;28.87;20.63;;;;;;;9.09;100.00;101378.50;5024384;28;20320;-69
2023/04/29 05:01:29;;;;;;;28.53;20.53;;;;;;;9.09;100.00;101388.72;5020171;28;20672;-71
2023/04/29 05:03:54;;;;;;;28.77;20.17;;;;;;;9.17;100.00;101395.81;5023807;28;20282;-70
2023/04/29 05:06:20;;;;;;;26.97;19.03;;;;;;;9.19;100.00;101394.19;5023246;28;20562;-70
2023/04/29 05:08:46;;;;;;;27.63;19.20;;;;;;;9.07;100.00;101403.13;5013662;28;20715;-72
2023/04/29 05:11:17;;;;;;;24.90;18.27;;;;;;;9.18;100.00;101402.69;5010278;28;20218;-69
2023/04/29 05:13:44;;;;;;;22.07;16.73;;;;;;;9.15;100.00;101411.91;5003208;28;20197;-69
2023/04/29 05:16:10;;;;;;;24.47;18.60;;;;;;;9.18;100.00;101409.47;5011103;28;20722;-68
2023/04/29 05:18:43;;;;;;;25.03;18.10;;;;;;;9.19;100.00;101417.19;5023312;28;20213;-70
2023/04/29 05:21:08;;;;;;;23.63;17.57;;;;;;;9.26;100.00;101423.38;5008243;28;20199;-66
2023/04/29 05:23:34;;;;;;;25.70;18.47;;;;;;;9.21;100.00;101410.41;5009885;28;20183;-69
2023/04/29 05:26:01;;;;;;;27.03;18.10;;;;;;;9.26;100.00;101424.22;4996514;28;20289;-69
2023/04/29 05:28:26;;;;;;;26.07;19.00;;;;;;;9.30;100.00;101427.78;5009147;28;20199;-71
2023/04/29 05:30:52;;;;;;;23.33;18.07;;;;;;;9.38;100.00;101437.41;5009761;28;20304;-71
2023/04/29 05:33:19;;;;;;;23.77;18.50;;;;;;;9.44;100.00;101442.72;5006350;28;20222;-69
2023/04/29 05:35:45;;;;;;;24.83;18.60;;;;;;;9.35;100.00;101439.84;5010313;28;20616;-69
2023/04/29 05:38:10;;;;;;;23.93;18.43;;;;;;;9.39;100.00;101438.28;5014702;28;20285;-68
2023/04/29 05:40:39;;;;;;;20.87;18.27;;;;;;;9.35;100.00;101439.84;5009089;28;20900;-70
2023/04/29 05:43:26;;;;;;;21.80;18.40;;;;;;;9.26;100.00;101446.38;4989973;28;20743;-69
2023/04/29 05:45:52;;;;;;;23.20;17.90;;;;;;;9.25;100.00;101450.59;5004955;28;20249;-69
2023/04/29 05:48:18;;;;;;;25.60;18.97;;;;;;;9.30;100.00;101451.63;5022951;28;20207;-70
2023/04/29 05:50:44;;;;;;;24.20;19.17;;;;;;;9.33;100.00;101454.28;5027754;28;20241;-70
2023/04/29 05:53:10;;;;;;;25.27;18.53;;;;;;;9.33;100.00;101453.41;5010219;28;20187;-70
2023/04/29 05:55:36;;;;;;;25.03;18.83;;;;;;;9.59;100.00;101461.13;5010074;28;20349;-69
2023/04/29 05:58:01;;;;;;;21.80;18.70;;;;;;;9.54;100.00;101461.81;5022312;28;20278;-70
2023/04/29 06:00:27;;;;;;;25.67;18.33;;;;;;;9.61;100.00;101456.94;5021185;28;20297;-68
2023/04/29 06:02:59;;;;;;;21.63;17.23;;;;;;;9.67;100.00;101466.50;5004473;28;20743;-68
2023/04/29 06:05:26;;;;;;;27.37;18.57;;;;;;;9.78;100.00;101465.16;5010527;28;20203;-70
2023/04/29 06:08:10;;;;;;;23.77;17.53;;;;;;;9.96;100.00;101471.72;5024179;28;20257;-71
2023/04/29 06:11:02;;;;;;;20.30;16.00;;;;;;;10.20;100.00;101474.22;5024921;28;20230;-68
2023/04/29 06:13:29;;;;;;;20.73;17.07;;;;;;;10.53;100.00;101475.22;5006101;28;20191;-69
2023/04/29 06:15:54;;;;;;;20.00;16.00;;;;;;;10.63;100.00;101482.34;4995437;28;20191;-71
2023/04/29 06:18:20;;;;;;;19.30;16.00;;;;;;;10.69;100.00;101483.41;4998912;28;20663;-71
2023/04/29 06:20:46;;;;;;;15.37;13.70;;;;;;;10.82;100.00;101487.19;5004142;28;20187;-69
2023/04/29 06:23:13;;;;;;;18.57;14.13;;;;;;;10.87;100.00;101489.06;4998747;28;20277;-71
2023/04/29 06:25:39;;;;;;;18.50;13.87;;;;;;;10.81;100.00;101488.00;5006308;28;20198;-70
2023/04/29 06:28:07;;;;;;;18.77;14.00;;;;;;;10.81;100.00;101488.88;5007291;28;20190;-69
2023/04/29 06:30:33;;;;;;;15.23;13.03;;;;;;;10.95;100.00;101495.28;5022643;28;20244;-70
2023/04/29 06:32:58;;;;;;;14.00;12.43;;;;;;;11.19;100.00;101484.81;5010810;28;20225;-70
2023/04/29 06:35:24;;;;;;;14.80;12.10;;;;;;;11.35;100.00;101492.97;5014476;28;20229;-70
2023/04/29 06:38:08;;;;;;;14.33;11.17;;;;;;;11.51;100.00;101497.66;5026878;28;20213;-68
2023/04/29 06:40:59;;;;;;;15.60;11.07;;;;;;;11.62;100.00;101500.56;5008620;28;20669;-70
2023/04/29 06:44:03;;;;;;;14.87;10.90;;;;;;;11.81;100.00;101495.03;5011457;28;20293;-71
2023/04/29 06:46:41;;;;;;;11.17;9.53;;;;;;;11.84;100.00;101501.13;5022091;28;20198;-70
2023/04/29 06:49:16;;;;;;;11.67;9.77;;;;;;;12.02;100.00;101490.41;5025877;28;20246;-68
2023/04/29 06:51:42;;;;;;;13.03;8.70;;;;;;;12.05;100.00;101498.19;5021479;28;20668;-70
2023/04/29 06:54:07;;;;;;;10.90;8.90;;;;;;;12.25;100.00;101497.84;5010280;28;20758;-69
2023/04/29 06:56:33;;;;;;;12.03;8.33;;;;;;;12.36;100.00;101491.22;5022309;28;20194;-69
2023/04/29 06:58:58;;;;;;;11.13;7.60;;;;;;;12.56;100.00;101509.66;5023756;28;20557;-70
2023/04/29 07:01:23;;;;;;;11.03;7.70;;;;;;;12.61;100.00;101493.53;5010035;28;20198;-69
2023/04/29 07:03:49;;;;;;;9.37;7.87;;;;;;;12.68;100.00;101490.22;5020073;28;20226;-67
2023/04/29 07:06:16;;;;;;;14.70;7.83;;;;;;;12.78;100.00;101489.63;5010254;28;20195;-70
2023/04/29 07:08:43;;;;;;;10.07;7.27;;;;;;;12.79;100.00;101469.91;5025854;28;20245;-68
2023/04/29 07:11:09;;;;;;;11.07;7.00;;;;;;;12.95;100.00;101447.09;5008175;28;20238;-68
2023/04/29 07:13:34;;;;;;;9.93;6.50;;;;;;;12.89;100.00;101407.56;5022546;28;20187;-70
2023/04/29 07:16:00;;;;;;;11.43;6.90;;;;;;;13.11;100.00;101419.16;5018631;28;20194;-68
2023/04/29 07:18:26;;;;;;;8.77;6.30;;;;;;;12.99;100.00;101396.66;5009202;28;20218;-68
2023/04/29 07:20:51;;;;;;;10.07;7.27;;;;;;;13.22;100.00;101421.06;5007118;28;20215;-69
2023/04/29 07:23:17;;;;;;;10.97;6.97;;;;;;;13.33;100.00;101428.97;5011682;28;20183;-71
2023/04/29 07:25:44;;;;;;;11.93;7.03;;;;;;;13.48;100.00;101422.38;5011463;28;20674;-73
2023/04/29 07:28:09;;;;;;;10.03;6.73;;;;;;;13.43;100.00;101343.38;5020461;28;20205;-70
2023/04/29 07:30:35;;;;;;;9.27;6.53;;;;;;;13.68;100.00;101335.22;5021128;28;20931;-71
2023/04/29 07:33:03;;;;;;;14.27;9.00;;;;;;;13.83;100.00;101349.19;5005344;28;20206;-67
2023/04/29 07:35:28;;;;;;;17.97;10.50;;;;;;;13.90;100.00;101365.59;5022740;28;20195;-68
2023/04/29 07:37:55;;;;;;;9.30;6.60;;;;;;;14.09;100.00;101375.28;5011274;28;20200;-69
2023/04/29 07:40:20;;;;;;;11.20;6.30;;;;;;;14.33;100.00;101368.78;5009053;28;20862;-70
2023/04/29 07:42:46;;;;;;;9.73;6.53;;;;;;;14.43;100.00;101326.81;5008085;28;20222;-70
2023/04/29 07:45:12;;;;;;;8.17;6.30;;;;;;;14.47;100.00;101264.16;5013047;28;20213;-70
2023/04/29 07:47:38;;;;;;;13.73;7.20;;;;;;;14.53;100.00;101286.53;5019114;28;20202;-68
2023/04/29 07:50:04;;;;;;;10.87;6.77;;;;;;;14.52;100.00;101275.38;5024909;28;20225;-70
2023/04/29 07:52:30;;;;;;;13.60;6.47;;;;;;;14.63;100.00;101290.94;5024347;28;20193;-68
2023/04/29 07:54:55;;;;;;;9.07;6.00;;;;;;;15.04;100.00;101305.06;5011698;28;20202;-69
2023/04/29 07:57:21;;;;;;;10.87;6.57;;;;;;;15.04;100.00;101250.91;5015376;28;20197;-69
2023/04/29 07:59:51;;;;;;;9.33;6.53;;;;;;;15.24;100.00;101264.84;5011159;28;20257;-71
2023/04/29 08:02:17;;;;;;;7.87;6.07;;;;;;;15.11;100.00;101183.06;5009010;28;20243;-70
2023/04/29 08:04:42;;;;;;;11.20;6.73;;;;;;;15.29;100.00;101202.06;5025331;28;20187;-70
2023/04/29 08:07:09;;;;;;;10.10;6.37;;;;;;;15.30;100.00;101228.75;5010234;28;20722;-68
2023/04/29 08:09:35;;;;;;;8.63;5.83;;;;;;;15.63;100.00;101201.44;5008040;28;20223;-69
2023/04/29 08:12:02;;;;;;;7.20;6.50;;;;;;;15.66;100.00;101190.28;5026941;28;20205;-69
2023/04/29 08:14:27;;;;;;;10.43;7.03;;;;;;;15.69;100.00;101185.09;5021573;28;20659;-69
2023/04/29 08:16:54;;;;;;;9.47;6.80;;;;;;;15.88;100.00;101177.44;5017017;28;20194;-68
2023/04/29 08:19:20;;;;;;;8.87;6.73;;;;;;;15.61;100.00;101128.28;5010381;28;20210;-70
2023/04/29 08:21:46;;;;;;;9.43;6.13;;;;;;;15.81;100.00;101107.69;5008935;28;20195;-71
2023/04/29 08:24:12;;;;;;;9.27;6.23;;;;;;;16.18;100.00;101118.09;5019904;28;20199;-70
2023/04/29 08:26:41;;;;;;;10.30;5.93;;;;;;;16.22;100.00;101093.97;5022846;28;20599;-70
2023/04/29 08:29:06;;;;;;;7.07;6.00;;;;;;;16.40;100.00;101103.50;5024106;28;20688;-69
2023/04/29 08:31:33;;;;;;;7.27;5.63;;;;;;;16.67;100.00;101106.91;5012072;28;20249;-70
2023/04/29 08:34:04;;;;;;;6.93;5.70;;;;;;;16.65;96.89;101062.09;5022112;28;20282;-68
2023/04/29 08:36:30;;;;;;;8.30;5.40;;;;;;;16.71;99.90;101084.50;5008675;28;20206;-68
2023/04/29 08:38:55;;;;;;;7.90;5.70;;;;;;;16.99;99.29;101087.00;5023660;28;20215;-69
2023/04/29 08:41:22;;;;;;;7.23;5.87;;;;;;;17.04;92.83;101037.84;5021945;28;20222;-66
2023/04/29 08:43:47;;;;;;;8.73;6.50;;;;;;;16.98;88.61;101007.66;5014941;28;20260;-69
2023/04/29 08:46:13;;;;;;;11.33;5.73;;;;;;;17.06;95.40;101041.28;5017983;28;20203;-67
2023/04/29 08:48:39;;;;;;;8.20;5.43;;;;;;;17.05;88.99;101030.09;5015947;28;20218;-68
2023/04/29 08:51:06;;;;;;;10.67;6.20;;;;;;;17.38;90.99;101031.63;4989434;28;20219;-67
2023/04/29 08:53:31;;;;;;;8.10;6.20;;;;;;;17.25;87.16;101012.72;5023990;28;20566;-68
2023/04/29 08:56:02;;;;;;;7.40;5.87;;;;;;;17.47;93.04;101063.56;5024249;28;20199;-68
2023/04/29 08:58:28;;;;;;;9.47;5.83;;;;;;;17.38;81.99;100970.38;5021704;28;20655;-69
2023/04/29 09:00:55;;;;;;;10.13;6.40;;;;;;;17.55;86.93;101015.16;5007839;28;20198;-68
2023/04/29 09:03:20;;;;;;;7.30;6.00;;;;;;;17.63;76.30;100943.47;5019564;28;20313;-69
2023/04/29 09:05:48;;;;;;;9.50;6.17;;;;;;;17.75;77.47;100950.28;5027432;28;20316;-68
2023/04/29 09:08:15;;;;;;;7.27;5.63;;;;;;;17.62;77.70;100969.38;5019986;28;20286;-67
2023/04/29 09:10:42;;;;;;;7.83;5.60;;;;;;;17.86;77.57;100979.53;5019881;28;20708;-68
2023/04/29 09:13:07;;;;;;;8.50;5.90;;;;;;;18.03;76.79;100962.13;5020071;28;20207;-68
2023/04/29 09:15:39;;;;;;;6.93;5.70;;;;;;;18.18;73.75;100944.69;5023250;28;20273;-68
2023/04/29 09:18:04;;;;;;;10.03;6.63;;;;;;;18.23;76.67;100963.66;5016355;28;20207;-69
2023/04/29 09:20:30;;;;;;;11.60;5.80;;;;;;;18.18;70.47;100930.88;5021345;28;20217;-68
2023/04/29 09:23:04;;;;;;;10.20;6.57;;;;;;;18.15;75.75;100972.41;5022876;28;20289;-68
2023/04/29 09:25:30;;;;;;;9.17;6.27;;;;;;;18.05;66.57;100911.16;5012111;28;20782;-69
2023/04/29 09:27:56;;;;;;;6.47;5.73;;;;;;;18.27;68.24;100926.47;5021291;28;20190;-68
2023/04/29 09:30:22;;;;;;;7.57;5.83;;;;;;;18.02;67.29;100914.63;5011104;28;20218;-68
2023/04/29 09:33:05;;;;;;;11.53;6.20;;;;;;;18.35;70.34;100948.03;5021928;28;20274;-68
2023/04/29 09:35:31;;;;;;;11.03;8.60;;;;;;;18.38;65.33;100906.47;5025242;28;20196;-67
2023/04/29 09:38:11;;;;;;;8.00;5.80;;;;;;;18.95;65.86;100913.56;5022288;28;20202;-66
2023/04/29 09:40:37;;;;;;;6.63;5.33;;;;;;;18.87;61.15;100893.75;5023550;28;20213;-68
2023/04/29 09:43:12;;;;;;;7.73;5.47;;;;;;;18.80;62.86;100903.34;5017636;28;20289;-66
2023/04/29 09:45:42;;;;;;;7.80;5.60;;;;;;;18.70;57.60;100852.47;5011872;28;20291;-66
2023/04/29 09:48:09;;;;;;;9.67;5.20;;;;;;;18.95;58.53;100866.84;5018796;28;20581;-66
2023/04/29 09:50:36;;;;;;;6.77;5.10;;;;;;;19.25;58.99;100941.72;5024689;28;20214;-68
2023/04/29 09:53:02;;;;;;;8.03;5.00;;;;;;;19.60;55.53;100957.66;5021114;28;20203;-68
2023/04/29 09:55:28;;;;;;;7.53;4.93;;;;;;;19.44;54.85;100994.28;5020521;28;20249;-69
2023/04/29 09:57:54;;;;;;;7.47;5.60;;;;;;;19.19;54.40;101003.22;5021273;28;20263;-70
2023/04/29 10:00:20;;;;;;;8.27;5.57;;;;;;;19.50;54.34;101022.75;5023868;28;20217;-71
2023/04/29 10:02:46;;;;;;;8.73;5.17;;;;;;;19.66;55.51;101037.25;5017728;28;20434;-71
2023/04/29 10:05:13;;;;;;;8.30;5.90;;;;;;;19.31;54.19;101047.25;5021626;28;20216;-71
2023/04/29 10:07:40;;;;;;;7.70;5.67;;;;;;;19.34;55.40;101068.00;5023907;28;20210;-71
2023/04/29 10:10:07;;;;;;;8.37;5.47;;;;;;;19.66;54.44;101058.91;5021999;28;20210;-71
2023/04/29 10:12:40;;;;;;;11.80;6.20;;;;;;;19.63;53.90;101069.31;5022242;28;20186;-71
2023/04/29 10:15:41;;;;;;;8.13;6.10;;;;;;;19.49;52.73;101057.41;5015299;28;20257;-71
2023/04/29 10:18:19;;;;;;;8.57;6.40;;;;;;;19.48;53.02;101081.69;5012594;28;20191;-71
2023/04/29 10:20:47;;;;;;;7.83;5.90;;;;;;;19.93;54.19;101107.03;5015951;28;20226;-72
2023/04/29 10:23:14;;;;;;;10.40;6.40;;;;;;;20.09;54.30;101108.56;5014993;28;20237;-70
2023/04/29 10:25:45;;;;;;;7.23;6.53;;;;;;;20.22;52.84;101104.91;5022984;28;20189;-71
2023/04/29 10:28:14;;;;;;;9.90;7.70;;;;;;;20.31;54.20;101131.59;5024928;28;20194;-71
2023/04/29 10:30:42;;;;;;;8.13;6.40;;;;;;;20.83;52.90;101116.00;5002148;28;20321;-70
2023/04/29 10:33:10;;;;;;;8.10;7.30;;;;;;;20.64;55.28;101145.84;5014397;28;20561;-69
2023/04/29 10:35:36;;;;;;;7.13;5.70;;;;;;;20.94;55.44;101143.59;5010537;28;20194;-71
2023/04/29 10:38:10;;;;;;;7.23;6.43;;;;;;;21.15;52.60;101111.06;5023560;28;20274;-70
2023/04/29 10:40:39;;;;;;;8.87;7.50;;;;;;;21.13;51.00;101129.34;5021317;28;20246;-70
2023/04/29 10:43:05;;;;;;;8.77;6.57;;;;;;;21.36;52.84;101170.56;5006868;28;20214;-69
2023/04/29 10:45:31;;;;;;;9.73;7.40;;;;;;;21.32;53.71;101185.41;5009435;28;20205;-71
2023/04/29 10:48:05;;;;;;;7.33;6.43;;;;;;;21.17;53.67;101195.25;5018263;28;20284;-69
2023/04/29 10:50:33;;;;;;;8.07;6.13;;;;;;;20.99;51.41;101175.63;5016786;28;20778;-71
2023/04/29 10:53:03;;;;;;;7.10;5.77;;;;;;;21.16;53.04;101207.44;5019210;28;20877;-71
2023/04/29 10:55:28;;;;;;;6.60;5.20;;;;;;;21.81;50.99;101180.97;5018920;28;20630;-72
2023/04/29 10:57:55;;;;;;;7.90;5.73;;;;;;;21.89;49.47;101175.59;5019569;28;20218;-72
2023/04/29 11:00:29;;;;;;;6.83;5.60;;;;;;;22.28;49.58;101206.03;5005464;28;20280;-70
2023/04/29 11:02:58;;;;;;;9.30;6.17;;;;;;;21.36;47.53;101186.22;5017457;28;20199;-70
2023/04/29 11:05:33;;;;;;;7.63;6.07;;;;;;;20.82;49.78;101237.50;5020955;28;20707;-68
2023/04/29 11:08:15;;;;;;;7.50;5.47;;;;;;;21.88;48.86;101220.84;5008060;28;20263;-69
2023/04/29 11:10:42;;;;;;;5.93;5.33;;;;;;;21.28;47.02;101215.03;5022951;28;20214;-69
2023/04/29 11:13:24;;;;;;;6.57;5.70;;;;;;;20.77;47.24;101246.28;5018457;28;20213;-69
2023/04/29 11:15:51;;;;;;;9.53;5.87;;;;;;;20.25;48.85;101281.72;5018090;28;20195;-70
2023/04/29 11:18:17;;;;;;;6.60;5.80;;;;;;;20.39;49.08;101296.28;5024924;28;20277;-69